Terminal Aerodrome Forecast
Issued by NWS

Home | Current Version | Previous Version | Text Only | Print | Product List | Glossary On
Versions: 1 2 3 4 5 6 7 8 9 10 11 12 13 14 15 16 17 18 19
352
FTUS43 KMQT 211137
TAFIWD
TAF
KIWD 211137Z 2112/2212 VRB03KT 3SM BR SKC
      TEMPO 2112/2113 1/2SM FG VV002
     FM211300 13005KT P6SM SCT002
     FM211600 13011KT P6SM SKC
     FM220000 16012KT P6SM SCT015
     FM220300 16013KT P6SM BKN015 WS020/20040KT
     FM220600 18015KT 4SM BR VCTS SCT009 BKN015CB WS020/20040KT=

USA.gov is the U.S. government's official web portal to all federal, state and local government web resources and services.